Time;durP1;ratioP1;P1;durP2;ratioP2;P2;SDS_P1;SDS_P2;PMS_P1;PMS_P2;Temp;Humidity;BMP_temperature;BMP_pressure;BME280_temperature;BME280_humidity;BME280_pressure;Samples;Min_cycle;Max_cycle;Signal;HPM_P1;HPM_P2
2023/10/21 00:00:43;;;;;;;6.47;2.33;;;;;;;;;;5018778;28;20100;-70
2023/10/21 00:03:09;;;;;;;5.50;2.03;;;;;;;;;;5021751;28;20038;-69
2023/10/21 00:05:35;;;;;;;9.35;2.40;;;;;;;;;;5022573;28;20033;-69
2023/10/21 00:08:03;;;;;;;5.43;1.80;;;;;;;;;;5020518;28;20693;-70
2023/10/21 00:10:29;;;;;;;11.23;2.42;;;;;;;;;;5021822;28;20038;-70
2023/10/21 00:12:55;;;;;;;8.07;2.65;;;;;;;;;;5019332;28;20029;-69
2023/10/21 00:15:21;;;;;;;5.95;2.25;;;;;;;;;;5018812;28;20393;-70
2023/10/21 00:17:47;;;;;;;7.00;2.55;;;;;;;;;;5018560;28;20037;-70
2023/10/21 00:20:14;;;;;;;7.32;2.05;;;;;;;;;;5023811;28;20026;-70
2023/10/21 00:22:40;;;;;;;8.32;2.42;;;;;;;;;;5021590;28;20100;-70
2023/10/21 00:25:06;;;;;;;10.50;2.40;;;;;;;;;;5022455;28;20030;-70
2023/10/21 00:27:33;;;;;;;8.13;2.28;;;;;;;;;;5020519;28;20045;-70
2023/10/21 00:29:59;;;;;;;12.63;2.33;;;;;;;;;;5018520;28;20083;-70
2023/10/21 00:32:25;;;;;;;4.90;2.30;;;;;;;;;;5025892;28;20477;-71
2023/10/21 00:34:52;;;;;;;8.73;2.22;;;;;;;;;;5020434;28;20037;-70
2023/10/21 00:37:18;;;;;;;7.10;1.90;;;;;;;;;;5038496;28;20044;-70
2023/10/21 00:39:44;;;;;;;6.22;2.70;;;;;;;;;;5020741;28;20030;-70
2023/10/21 00:42:11;;;;;;;6.03;2.05;;;;;;;;;;5026504;28;20374;-70
2023/10/21 00:44:37;;;;;;;5.20;2.05;;;;;;;;;;5017161;28;20029;-70
2023/10/21 00:47:03;;;;;;;5.75;1.65;;;;;;;;;;5020733;28;20033;-70
2023/10/21 00:49:29;;;;;;;3.65;2.05;;;;;;;;;;5022529;28;20490;-71
2023/10/21 00:51:56;;;;;;;7.65;2.38;;;;;;;;;;5015461;28;20068;-71
2023/10/21 00:54:23;;;;;;;6.95;3.35;;;;;;;;;;5021203;28;20026;-70
2023/10/21 00:56:49;;;;;;;3.47;2.15;;;;;;;;;;5026637;28;20025;-72
2023/10/21 00:59:15;;;;;;;9.07;1.98;;;;;;;;;;5040010;28;20025;-71
2023/10/21 01:01:43;;;;;;;4.20;2.15;;;;;;;;;;5025992;28;20116;-70
2023/10/21 01:04:10;;;;;;;5.03;2.30;;;;;;;;;;5021628;28;20566;-70
2023/10/21 01:06:36;;;;;;;4.40;2.20;;;;;;;;;;5021736;28;20565;-70
2023/10/21 01:09:03;;;;;;;3.75;2.05;;;;;;;;;;5024780;28;20029;-70
2023/10/21 01:11:29;;;;;;;7.57;2.58;;;;;;;;;;5026228;28;20517;-71
2023/10/21 01:13:56;;;;;;;10.40;2.13;;;;;;;;;;5024929;28;20100;-70
2023/10/21 01:16:22;;;;;;;8.00;2.88;;;;;;;;;;5026474;28;20041;-70
2023/10/21 01:18:48;;;;;;;7.20;2.05;;;;;;;;;;5019951;28;20079;-70
2023/10/21 01:21:14;;;;;;;6.55;2.63;;;;;;;;;;5025664;28;20282;-71
2023/10/21 01:23:41;;;;;;;6.05;1.92;;;;;;;;;;5021772;28;20041;-70
2023/10/21 01:26:07;;;;;;;3.10;1.80;;;;;;;;;;5021060;28;20033;-69
2023/10/21 01:28:34;;;;;;;7.30;2.00;;;;;;;;;;5026066;28;20098;-71
2023/10/21 01:31:00;;;;;;;7.53;2.40;;;;;;;;;;5025187;28;20042;-71
2023/10/21 01:33:26;;;;;;;3.35;2.05;;;;;;;;;;5027106;28;20139;-71
2023/10/21 01:35:53;;;;;;;8.43;2.30;;;;;;;;;;5025421;28;20037;-71
2023/10/21 01:38:19;;;;;;;7.65;2.65;;;;;;;;;;5023481;28;20036;-70
2023/10/21 01:40:46;;;;;;;6.93;2.65;;;;;;;;;;5023532;28;20406;-70
2023/10/21 01:43:12;;;;;;;5.13;1.98;;;;;;;;;;5022892;28;21369;-70
2023/10/21 01:45:38;;;;;;;5.35;2.53;;;;;;;;;;5022468;28;20061;-70
2023/10/21 01:48:05;;;;;;;8.93;2.45;;;;;;;;;;5024127;28;20120;-70
2023/10/21 01:50:31;;;;;;;5.90;2.35;;;;;;;;;;5027671;28;20243;-71
2023/10/21 01:52:58;;;;;;;5.60;2.53;;;;;;;;;;5022298;28;20033;-70
2023/10/21 01:55:24;;;;;;;7.43;3.47;;;;;;;;;;5022456;28;21884;-71
2023/10/21 01:57:51;;;;;;;4.32;1.70;;;;;;;;;;5024391;28;20037;-70
2023/10/21 02:00:20;;;;;;;14.45;2.85;;;;;;;;;;5024650;28;20076;-70
2023/10/21 02:02:54;;;;;;;7.57;2.33;;;;;;;;;;5021412;28;20059;-70
2023/10/21 02:05:21;;;;;;;8.10;2.55;;;;;;;;;;5022062;28;20038;-70
2023/10/21 02:07:47;;;;;;;11.80;2.20;;;;;;;;;;5024409;28;20387;-72
2023/10/21 02:10:13;;;;;;;8.52;2.38;;;;;;;;;;5023773;28;20026;-70
2023/10/21 02:12:39;;;;;;;5.35;1.85;;;;;;;;;;5027062;28;20021;-71
2023/10/21 02:15:06;;;;;;;3.50;1.90;;;;;;;;;;5024614;28;20071;-71
2023/10/21 02:17:32;;;;;;;7.40;2.33;;;;;;;;;;5023104;28;20121;-71
2023/10/21 02:19:59;;;;;;;6.15;2.10;;;;;;;;;;5042522;28;20544;-71
2023/10/21 02:22:25;;;;;;;7.20;1.83;;;;;;;;;;5024530;28;20022;-71
2023/10/21 02:24:53;;;;;;;3.25;1.85;;;;;;;;;;5024427;28;20036;-70
2023/10/21 02:27:19;;;;;;;4.50;1.83;;;;;;;;;;5024020;28;20046;-74
2023/10/21 02:29:45;;;;;;;4.72;1.70;;;;;;;;;;5042471;28;20022;-71
2023/10/21 02:32:12;;;;;;;11.65;2.45;;;;;;;;;;5021126;28;20022;-73
2023/10/21 02:34:38;;;;;;;5.70;2.20;;;;;;;;;;5028670;28;20025;-72
2023/10/21 02:37:04;;;;;;;3.25;1.60;;;;;;;;;;5044938;28;20029;-72
2023/10/21 02:39:30;;;;;;;5.22;2.00;;;;;;;;;;5027280;28;20304;-71
2023/10/21 02:41:56;;;;;;;6.65;1.95;;;;;;;;;;5024012;28;20037;-72
2023/10/21 02:44:23;;;;;;;2.58;1.85;;;;;;;;;;5025141;28;20041;-71
2023/10/21 02:46:49;;;;;;;7.50;2.10;;;;;;;;;;5022328;28;20072;-72
2023/10/21 02:49:15;;;;;;;4.57;1.60;;;;;;;;;;5027104;28;20519;-73
2023/10/21 02:51:41;;;;;;;2.72;1.67;;;;;;;;;;5025337;28;20122;-73
2023/10/21 02:54:08;;;;;;;6.78;1.90;;;;;;;;;;5026497;28;20381;-76
2023/10/21 02:56:35;;;;;;;3.33;2.00;;;;;;;;;;5023563;28;20040;-73
2023/10/21 02:59:02;;;;;;;3.85;1.80;;;;;;;;;;5027273;28;20083;-72
2023/10/21 03:01:29;;;;;;;8.10;1.80;;;;;;;;;;5022911;28;20037;-72
2023/10/21 03:03:55;;;;;;;4.65;1.65;;;;;;;;;;5023731;28;20099;-72
2023/10/21 03:06:21;;;;;;;3.10;1.70;;;;;;;;;;5023726;28;20344;-72
2023/10/21 03:08:48;;;;;;;2.47;1.70;;;;;;;;;;5023340;28;20025;-73
2023/10/21 03:11:14;;;;;;;4.57;1.83;;;;;;;;;;5025789;28;20109;-72
2023/10/21 03:13:41;;;;;;;4.47;1.70;;;;;;;;;;5020881;28;20027;-72
2023/10/21 03:16:08;;;;;;;3.28;1.73;;;;;;;;;;5024831;28;20041;-73
2023/10/21 03:18:35;;;;;;;6.13;1.98;;;;;;;;;;5025080;28;20036;-71
2023/10/21 03:21:01;;;;;;;2.70;1.90;;;;;;;;;;5024583;28;20026;-71
2023/10/21 03:23:27;;;;;;;6.00;1.90;;;;;;;;;;5024446;28;20429;-72
2023/10/21 03:25:56;;;;;;;5.00;1.58;;;;;;;;;;5023761;28;20032;-71
2023/10/21 03:28:28;;;;;;;5.13;1.85;;;;;;;;;;5023617;28;20451;-73
2023/10/21 03:30:58;;;;;;;2.30;1.48;;;;;;;;;;5023125;28;20034;-71
2023/10/21 03:33:24;;;;;;;3.90;1.58;;;;;;;;;;5019796;28;20029;-71
2023/10/21 03:35:51;;;;;;;6.07;1.98;;;;;;;;;;5025975;28;20030;-71
2023/10/21 03:38:18;;;;;;;4.40;1.70;;;;;;;;;;5025745;28;20362;-72
2023/10/21 03:40:44;;;;;;;5.75;1.88;;;;;;;;;;5022641;28;20030;-71
2023/10/21 03:43:11;;;;;;;1.52;1.38;;;;;;;;;;5022842;28;20036;-71
2023/10/21 03:45:37;;;;;;;2.53;1.42;;;;;;;;;;5035220;28;20486;-71
2023/10/21 03:48:03;;;;;;;5.07;1.92;;;;;;;;;;5024428;28;20386;-72
2023/10/21 03:50:29;;;;;;;2.75;1.60;;;;;;;;;;5037254;28;20025;-71
2023/10/21 03:52:56;;;;;;;4.72;2.03;;;;;;;;;;5023845;28;20489;-71
2023/10/21 03:55:22;;;;;;;3.00;1.67;;;;;;;;;;5037266;28;20021;-71
2023/10/21 03:57:49;;;;;;;3.13;1.35;;;;;;;;;;5028033;28;20093;-72
2023/10/21 04:00:17;;;;;;;2.22;1.98;;;;;;;;;;5039145;28;20070;-72
2023/10/21 04:02:43;;;;;;;2.28;1.27;;;;;;;;;;5024323;28;20421;-71
2023/10/21 04:05:09;;;;;;;1.88;1.48;;;;;;;;;;5025834;28;20021;-71
2023/10/21 04:07:35;;;;;;;3.28;1.60;;;;;;;;;;5020685;28;20148;-71
2023/10/21 04:10:01;;;;;;;4.10;1.80;;;;;;;;;;5023314;28;20388;-71
2023/10/21 04:12:30;;;;;;;2.22;1.20;;;;;;;;;;5022386;28;20026;-72
2023/10/21 04:14:56;;;;;;;2.95;1.70;;;;;;;;;;5021020;28;20028;-71
2023/10/21 04:17:22;;;;;;;1.20;1.20;;;;;;;;;;5023844;28;20405;-71
2023/10/21 04:19:48;;;;;;;1.50;1.42;;;;;;;;;;5023315;28;20044;-71
2023/10/21 04:22:14;;;;;;;3.50;1.42;;;;;;;;;;5021473;28;20029;-71
2023/10/21 04:24:40;;;;;;;4.47;1.75;;;;;;;;;;5022749;28;20033;-71
2023/10/21 04:27:07;;;;;;;3.05;1.35;;;;;;;;;;5022422;28;20054;-71
2023/10/21 04:29:33;;;;;;;2.28;1.52;;;;;;;;;;5022518;28;20509;-71
2023/10/21 04:31:59;;;;;;;1.20;1.10;;;;;;;;;;5022791;28;20030;-71
2023/10/21 04:34:25;;;;;;;1.65;1.55;;;;;;;;;;5029515;28;20385;-71
2023/10/21 04:36:51;;;;;;;1.88;1.70;;;;;;;;;;5030041;28;20557;-71
2023/10/21 04:39:17;;;;;;;2.00;1.25;;;;;;;;;;5029792;28;20032;-71
2023/10/21 04:41:43;;;;;;;2.72;1.55;;;;;;;;;;5028599;28;20035;-71
2023/10/21 04:44:10;;;;;;;1.10;1.10;;;;;;;;;;5026480;28;20029;-75
2023/10/21 04:46:36;;;;;;;1.95;1.50;;;;;;;;;;5027940;28;20040;-71
2023/10/21 04:49:03;;;;;;;1.85;1.67;;;;;;;;;;5028453;28;20017;-71
2023/10/21 04:51:30;;;;;;;1.77;1.40;;;;;;;;;;5030271;28;20035;-72
2023/10/21 04:53:56;;;;;;;3.30;1.73;;;;;;;;;;5027494;28;20076;-72
2023/10/21 04:56:22;;;;;;;6.43;1.70;;;;;;;;;;5026783;28;20389;-71
2023/10/21 04:58:48;;;;;;;4.53;1.90;;;;;;;;;;5025269;28;20025;-72
2023/10/21 05:01:16;;;;;;;3.90;1.70;;;;;;;;;;5023459;28;20060;-70
2023/10/21 05:03:43;;;;;;;2.75;1.70;;;;;;;;;;5026027;28;20049;-71
2023/10/21 05:06:09;;;;;;;4.75;1.70;;;;;;;;;;5026626;28;20037;-71
2023/10/21 05:08:35;;;;;;;1.60;1.50;;;;;;;;;;5026401;28;20033;-70
2023/10/21 05:11:01;;;;;;;1.58;1.48;;;;;;;;;;5025943;28;20061;-73
2023/10/21 05:13:28;;;;;;;1.92;1.67;;;;;;;;;;5028794;28;20522;-72
2023/10/21 05:15:54;;;;;;;1.65;1.48;;;;;;;;;;5026919;28;20442;-72
2023/10/21 05:18:20;;;;;;;2.28;1.52;;;;;;;;;;5026525;28;20049;-71
2023/10/21 05:20:46;;;;;;;4.65;1.50;;;;;;;;;;5029362;28;20026;-72
2023/10/21 05:23:13;;;;;;;2.90;1.40;;;;;;;;;;5026827;28;20084;-75
2023/10/21 05:25:39;;;;;;;4.13;1.38;;;;;;;;;;5025044;28;20041;-73
2023/10/21 05:28:05;;;;;;;2.40;1.60;;;;;;;;;;5027347;28;20069;-71
2023/10/21 05:30:32;;;;;;;2.95;1.55;;;;;;;;;;5028478;28;20040;-73
2023/10/21 05:32:58;;;;;;;1.33;1.25;;;;;;;;;;5021722;28;20025;-71
2023/10/21 05:35:24;;;;;;;1.38;1.30;;;;;;;;;;5024426;28;20394;-71
2023/10/21 05:37:51;;;;;;;1.67;1.58;;;;;;;;;;5022014;28;20055;-72
2023/10/21 05:40:17;;;;;;;2.28;1.60;;;;;;;;;;5026386;28;20461;-71
2023/10/21 05:42:43;;;;;;;5.22;2.78;;;;;;;;;;5027579;28;20060;-71
2023/10/21 05:45:09;;;;;;;2.88;1.48;;;;;;;;;;5030578;28;20033;-71
2023/10/21 05:47:36;;;;;;;1.80;1.70;;;;;;;;;;5028854;28;20482;-74
2023/10/21 05:50:02;;;;;;;2.45;1.50;;;;;;;;;;5021959;28;20030;-72
2023/10/21 05:52:29;;;;;;;2.95;1.45;;;;;;;;;;5028824;28;21331;-70
2023/10/21 05:54:56;;;;;;;2.83;1.38;;;;;;;;;;5022880;28;20022;-71
2023/10/21 05:57:22;;;;;;;1.27;1.17;;;;;;;;;;5041465;28;20048;-71
2023/10/21 05:59:48;;;;;;;3.58;1.38;;;;;;;;;;5024750;28;20520;-72
2023/10/21 06:02:14;;;;;;;1.27;1.27;;;;;;;;;;5027501;28;20033;-71
2023/10/21 06:04:41;;;;;;;1.25;1.25;;;;;;;;;;5031034;28;20560;-71
2023/10/21 06:07:07;;;;;;;2.92;1.70;;;;;;;;;;5025967;28;20032;-73
2023/10/21 06:09:33;;;;;;;1.70;1.60;;;;;;;;;;5034032;28;20894;-71
2023/10/21 06:11:59;;;;;;;5.72;1.33;;;;;;;;;;5023160;28;20033;-72
2023/10/21 06:14:25;;;;;;;1.48;1.38;;;;;;;;;;5020626;28;20033;-72
2023/10/21 06:16:52;;;;;;;1.30;1.20;;;;;;;;;;5023460;28;20428;-72
2023/10/21 06:19:18;;;;;;;4.07;1.23;;;;;;;;;;5029357;28;20029;-71
2023/10/21 06:21:44;;;;;;;1.50;1.40;;;;;;;;;;5026114;28;20094;-72
2023/10/21 06:24:10;;;;;;;1.42;1.20;;;;;;;;;;5028771;28;20104;-73
2023/10/21 06:26:36;;;;;;;1.27;1.20;;;;;;;;;;5027400;28;20048;-72
2023/10/21 06:29:02;;;;;;;1.90;1.50;;;;;;;;;;5024891;28;20032;-72
2023/10/21 06:31:29;;;;;;;1.40;1.30;;;;;;;;;;5022948;28;20046;-72
2023/10/21 06:33:55;;;;;;;1.52;1.42;;;;;;;;;;5019502;28;20021;-72
2023/10/21 06:36:21;;;;;;;3.60;1.80;;;;;;;;;;5018735;28;20497;-71
2023/10/21 06:38:50;;;;;;;1.90;1.75;;;;;;;;;;5022651;28;20022;-71
2023/10/21 06:41:17;;;;;;;2.67;1.52;;;;;;;;;;5018337;28;20036;-73
2023/10/21 06:43:43;;;;;;;3.30;1.50;;;;;;;;;;5022784;28;20171;-72
2023/10/21 06:46:13;;;;;;;1.65;1.27;;;;;;;;;;5021992;28;20049;-71
2023/10/21 06:48:39;;;;;;;1.33;1.23;;;;;;;;;;5025247;28;20036;-72
2023/10/21 06:51:05;;;;;;;1.75;1.48;;;;;;;;;;5024799;28;20458;-72
2023/10/21 06:53:31;;;;;;;3.80;1.52;;;;;;;;;;5021329;28;20101;-71
2023/10/21 06:55:59;;;;;;;4.68;1.88;;;;;;;;;;5019009;28;20033;-72
2023/10/21 06:58:26;;;;;;;1.40;1.30;;;;;;;;;;5021096;28;20427;-72
2023/10/21 07:00:53;;;;;;;3.40;1.42;;;;;;;;;;5016776;28;20040;-71
2023/10/21 07:03:19;;;;;;;1.42;1.35;;;;;;;;;;5023336;28;20491;-71
2023/10/21 07:05:45;;;;;;;1.13;1.13;;;;;;;;;;5017497;28;20030;-71
2023/10/21 07:08:11;;;;;;;3.15;1.30;;;;;;;;;;5020378;28;20040;-71
2023/10/21 07:10:39;;;;;;;1.60;1.20;;;;;;;;;;5018824;28;20034;-71
2023/10/21 07:13:05;;;;;;;1.83;1.50;;;;;;;;;;5023819;28;20025;-71
2023/10/21 07:15:31;;;;;;;3.08;1.50;;;;;;;;;;5023278;28;20025;-72
2023/10/21 07:17:57;;;;;;;2.28;1.35;;;;;;;;;;5019481;28;20111;-72
2023/10/21 07:20:25;;;;;;;1.50;1.40;;;;;;;;;;5019399;28;20501;-71
2023/10/21 07:22:52;;;;;;;4.97;1.70;;;;;;;;;;5023016;28;20049;-72
2023/10/21 07:25:18;;;;;;;1.80;1.33;;;;;;;;;;5023162;28;20029;-71
2023/10/21 07:27:47;;;;;;;3.30;1.70;;;;;;;;;;5020316;28;20531;-72
2023/10/21 07:30:14;;;;;;;3.28;2.05;;;;;;;;;;5015438;28;20041;-69
2023/10/21 07:32:44;;;;;;;1.25;1.23;;;;;;;;;;5019625;28;20394;-69
2023/10/21 07:35:10;;;;;;;1.70;1.60;;;;;;;;;;5017086;28;20030;-69
2023/10/21 07:37:37;;;;;;;1.83;1.50;;;;;;;;;;5019602;28;20033;-69
2023/10/21 07:40:05;;;;;;;3.05;1.85;;;;;;;;;;5018163;28;20057;-69
2023/10/21 07:42:31;;;;;;;1.63;1.52;;;;;;;;;;5011072;28;20029;-69
2023/10/21 07:44:57;;;;;;;1.92;1.55;;;;;;;;;;5018177;28;20033;-69
2023/10/21 07:47:24;;;;;;;2.22;1.42;;;;;;;;;;5020627;28;20037;-68
2023/10/21 07:49:51;;;;;;;3.85;1.67;;;;;;;;;;5024006;28;20037;-67
2023/10/21 07:52:17;;;;;;;1.60;1.50;;;;;;;;;;5023136;28;20060;-68
2023/10/21 07:54:44;;;;;;;1.60;1.50;;;;;;;;;;5020381;28;20026;-69
2023/10/21 07:57:10;;;;;;;4.80;1.60;;;;;;;;;;5022693;28;20096;-68
2023/10/21 07:59:36;;;;;;;5.72;1.60;;;;;;;;;;5023953;28;20079;-68
2023/10/21 08:02:02;;;;;;;1.98;1.70;;;;;;;;;;5021119;28;20025;-69
2023/10/21 08:04:28;;;;;;;1.63;1.40;;;;;;;;;;5023213;28;20040;-68
2023/10/21 08:06:55;;;;;;;4.63;1.83;;;;;;;;;;5025269;28;20576;-68
2023/10/21 08:09:21;;;;;;;4.45;1.75;;;;;;;;;;5026902;28;20029;-69
2023/10/21 08:11:48;;;;;;;2.70;1.70;;;;;;;;;;5022327;28;20018;-69
2023/10/21 08:14:14;;;;;;;2.35;1.67;;;;;;;;;;5027463;28;20388;-69
2023/10/21 08:16:40;;;;;;;5.95;2.33;;;;;;;;;;5024675;28;20033;-71
2023/10/21 08:19:06;;;;;;;1.63;1.52;;;;;;;;;;5026641;28;20139;-69
2023/10/21 08:21:36;;;;;;;3.50;1.65;;;;;;;;;;5024001;28;20040;-69
2023/10/21 08:24:03;;;;;;;5.30;1.63;;;;;;;;;;5027879;28;20032;-69
2023/10/21 08:26:32;;;;;;;2.90;1.92;;;;;;;;;;5027381;28;20056;-68
2023/10/21 08:28:58;;;;;;;4.13;2.85;;;;;;;;;;5028340;28;20040;-68
2023/10/21 08:31:25;;;;;;;3.33;1.60;;;;;;;;;;5026060;28;20064;-68
2023/10/21 08:33:54;;;;;;;4.07;2.03;;;;;;;;;;5024730;28;20754;-69
2023/10/21 08:36:21;;;;;;;4.88;2.28;;;;;;;;;;5022286;28;20032;-69
2023/10/21 08:38:48;;;;;;;4.72;2.20;;;;;;;;;;5024279;28;20026;-68
2023/10/21 08:41:14;;;;;;;2.53;2.20;;;;;;;;;;5027642;28;20021;-69
2023/10/21 08:43:48;;;;;;;3.38;2.10;;;;;;;;;;5029094;28;20488;-69
2023/10/21 08:46:15;;;;;;;6.15;2.55;;;;;;;;;;5026700;28;20068;-69
2023/10/21 08:48:42;;;;;;;2.90;2.17;;;;;;;;;;5029912;28;20033;-69
2023/10/21 08:51:09;;;;;;;5.68;2.15;;;;;;;;;;5027024;28;20029;-72
2023/10/21 08:53:40;;;;;;;2.78;2.10;;;;;;;;;;5029245;28;20033;-68
2023/10/21 08:56:06;;;;;;;2.67;1.75;;;;;;;;;;5028263;28;20163;-71
2023/10/21 08:58:32;;;;;;;2.58;1.90;;;;;;;;;;5025712;28;20445;-69
2023/10/21 09:00:59;;;;;;;2.17;1.80;;;;;;;;;;5025692;28;20064;-69
2023/10/21 09:03:25;;;;;;;2.88;1.80;;;;;;;;;;5024139;28;20037;-69
2023/10/21 09:06:11;;;;;;;4.70;2.13;;;;;;;;;;5024826;28;20029;-69
2023/10/21 09:08:37;;;;;;;3.63;1.80;;;;;;;;;;5020024;28;20028;-69
2023/10/21 09:11:06;;;;;;;6.57;2.35;;;;;;;;;;5025148;28;20048;-70
2023/10/21 09:13:34;;;;;;;3.88;2.00;;;;;;;;;;5025359;28;20022;-69
2023/10/21 09:16:01;;;;;;;2.70;1.90;;;;;;;;;;5026751;28;20036;-70
2023/10/21 09:18:27;;;;;;;3.47;2.03;;;;;;;;;;5024361;28;20061;-69
2023/10/21 09:20:53;;;;;;;1.85;1.73;;;;;;;;;;5026645;28;20033;-69
2023/10/21 09:23:19;;;;;;;6.18;2.10;;;;;;;;;;5024236;28;20068;-69
2023/10/21 09:25:49;;;;;;;4.60;2.25;;;;;;;;;;5020779;28;20560;-69
2023/10/21 09:28:22;;;;;;;2.45;1.75;;;;;;;;;;5020914;28;21089;-69
2023/10/21 09:30:58;;;;;;;3.47;2.05;;;;;;;;;;5023930;28;20187;-69
2023/10/21 09:33:26;;;;;;;2.95;1.90;;;;;;;;;;5024437;28;20029;-70
2023/10/21 09:36:03;;;;;;;4.00;2.15;;;;;;;;;;5026694;28;20033;-69
2023/10/21 09:38:36;;;;;;;2.80;2.20;;;;;;;;;;5024255;28;20052;-69
2023/10/21 09:41:04;;;;;;;3.13;2.20;;;;;;;;;;5027482;28;20091;-69
2023/10/21 09:43:30;;;;;;;3.28;2.00;;;;;;;;;;5025316;28;20056;-69
2023/10/21 09:45:58;;;;;;;5.35;2.72;;;;;;;;;;5025252;28;20689;-69
2023/10/21 09:48:25;;;;;;;4.07;2.15;;;;;;;;;;5025262;28;20477;-70
2023/10/21 09:50:52;;;;;;;2.63;2.10;;;;;;;;;;5020854;28;20033;-69
2023/10/21 09:53:23;;;;;;;5.95;2.50;;;;;;;;;;5022292;28;20060;-70
2023/10/21 09:55:50;;;;;;;3.83;2.10;;;;;;;;;;5022001;28;20033;-69
2023/10/21 09:58:16;;;;;;;5.25;2.20;;;;;;;;;;5025790;28;20068;-69
2023/10/21 10:00:42;;;;;;;3.38;1.90;;;;;;;;;;5024848;28;20042;-70
2023/10/21 10:03:08;;;;;;;3.50;1.80;;;;;;;;;;5025662;28;20112;-71
2023/10/21 10:05:37;;;;;;;2.92;2.00;;;;;;;;;;5021411;28;20039;-69
2023/10/21 10:08:04;;;;;;;5.15;1.95;;;;;;;;;;5026204;28;20022;-69
2023/10/21 10:10:31;;;;;;;4.90;2.00;;;;;;;;;;5024131;28;20057;-70
2023/10/21 10:13:09;;;;;;;2.45;1.83;;;;;;;;;;5025745;28;20133;-70
2023/10/21 10:15:37;;;;;;;5.45;2.85;;;;;;;;;;5037890;28;20033;-69
2023/10/21 10:18:04;;;;;;;5.85;2.20;;;;;;;;;;5020358;28;20025;-70
2023/10/21 10:20:31;;;;;;;4.63;2.08;;;;;;;;;;5024013;28;20497;-69
2023/10/21 10:22:58;;;;;;;2.90;2.00;;;;;;;;;;5025120;28;20033;-71
2023/10/21 10:25:26;;;;;;;3.55;2.40;;;;;;;;;;5025438;28;20230;-71
2023/10/21 10:28:10;;;;;;;2.35;1.77;;;;;;;;;;5024159;28;20063;-69
2023/10/21 10:30:45;;;;;;;2.47;2.15;;;;;;;;;;5026826;28;20083;-69
2023/10/21 10:33:15;;;;;;;4.18;2.03;;;;;;;;;;5022217;28;20033;-70
2023/10/21 10:35:47;;;;;;;5.13;2.20;;;;;;;;;;5014893;28;20043;-70
2023/10/21 10:38:25;;;;;;;3.38;1.70;;;;;;;;;;5023452;28;20064;-70
2023/10/21 10:40:52;;;;;;;2.30;1.80;;;;;;;;;;5022970;28;20397;-69
2023/10/21 10:43:19;;;;;;;3.75;1.80;;;;;;;;;;5019331;28;20022;-69
2023/10/21 10:45:47;;;;;;;2.65;2.00;;;;;;;;;;5019391;28;20171;-70
2023/10/21 10:48:15;;;;;;;2.83;1.90;;;;;;;;;;5015060;28;20026;-69
2023/10/21 10:50:41;;;;;;;1.70;1.60;;;;;;;;;;5021358;28;20140;-69
2023/10/21 10:53:20;;;;;;;5.45;1.95;;;;;;;;;;5019687;28;20546;-69
2023/10/21 10:55:50;;;;;;;4.90;2.03;;;;;;;;;;5018999;28;20040;-68
2023/10/21 10:58:18;;;;;;;5.93;2.35;;;;;;;;;;5021516;28;20032;-68
2023/10/21 11:00:45;;;;;;;2.30;1.90;;;;;;;;;;5019204;28;20095;-69
2023/10/21 11:03:21;;;;;;;2.10;1.90;;;;;;;;;;5020025;28;20033;-69
2023/10/21 11:05:50;;;;;;;1.98;1.80;;;;;;;;;;5021440;28;20095;-67
2023/10/21 11:08:18;;;;;;;3.90;1.70;;;;;;;;;;5022462;28;20120;-67
2023/10/21 11:10:44;;;;;;;4.22;1.80;;;;;;;;;;5021367;28;20465;-67
2023/10/21 11:13:10;;;;;;;2.67;1.80;;;;;;;;;;5023283;28;20084;-68
2023/10/21 11:15:40;;;;;;;1.77;1.67;;;;;;;;;;5020114;28;20047;-68
2023/10/21 11:18:06;;;;;;;1.60;1.50;;;;;;;;;;5019654;28;20057;-68
2023/10/21 11:20:32;;;;;;;2.67;1.92;;;;;;;;;;5019500;28;20025;-68
2023/10/21 11:23:09;;;;;;;1.83;1.73;;;;;;;;;;5021215;28;20060;-69
2023/10/21 11:25:35;;;;;;;2.83;2.17;;;;;;;;;;5022472;28;20068;-66
2023/10/21 11:28:02;;;;;;;4.15;2.15;;;;;;;;;;5019238;28;20123;-67
2023/10/21 11:30:29;;;;;;;3.53;1.95;;;;;;;;;;5020900;28;20025;-66
2023/10/21 11:32:55;;;;;;;3.25;2.20;;;;;;;;;;5018246;28;20107;-66
2023/10/21 11:35:24;;;;;;;1.90;1.70;;;;;;;;;;5012519;28;20053;-67
2023/10/21 11:37:55;;;;;;;2.97;2.10;;;;;;;;;;5019170;28;20025;-66
2023/10/21 11:40:22;;;;;;;5.18;2.35;;;;;;;;;;5016924;28;20040;-67
2023/10/21 11:43:06;;;;;;;6.53;1.75;;;;;;;;;;5019687;28;20021;-66
2023/10/21 11:45:33;;;;;;;2.70;1.80;;;;;;;;;;5020449;28;20131;-67
2023/10/21 11:48:08;;;;;;;2.13;1.70;;;;;;;;;;5015305;28;20025;-66
2023/10/21 11:50:35;;;;;;;1.92;1.80;;;;;;;;;;5019092;28;20025;-67
2023/10/21 11:53:05;;;;;;;2.38;1.60;;;;;;;;;;5023243;28;20505;-67
2023/10/21 12:07:11;;;;;;;3.80;2.40;;;;;;;;;;5023024;28;20493;-67
2023/10/21 12:19:52;;;;;;;3.67;2.20;;;;;;;;;;5021659;28;20037;-65
2023/10/21 12:38:22;;;;;;;2.25;1.80;;;;;;;;;;5017870;28;20030;-65
2023/10/21 12:41:25;;;;;;;1.60;1.50;;;;;;;;;;5019981;28;20369;-65
2023/10/21 12:43:45;;;;;;;1.60;1.50;;;;;;;;;;5015957;28;20457;-65
2023/10/21 12:46:18;;;;;;;1.65;1.55;;;;;;;;;;5020924;28;20470;-65
2023/10/21 12:48:45;;;;;;;2.42;1.60;;;;;;;;;;5021901;28;20022;-65
2023/10/21 12:51:15;;;;;;;3.22;1.70;;;;;;;;;;5022708;28;20384;-64
2023/10/21 12:53:42;;;;;;;1.63;1.48;;;;;;;;;;5023924;28;20422;-65
2023/10/21 12:56:08;;;;;;;2.78;2.00;;;;;;;;;;5022789;28;20378;-64
2023/10/21 12:58:34;;;;;;;4.10;2.38;;;;;;;;;;5007610;28;20958;-61
2023/10/21 13:01:00;;;;;;;4.90;2.80;;;;;;;;;;5017392;28;20029;-65
2023/10/21 13:03:26;;;;;;;3.80;2.60;;;;;;;;;;5014513;28;20533;-68
2023/10/21 13:05:53;;;;;;;3.35;2.90;;;;;;;;;;5016800;28;20033;-68
2023/10/21 13:08:19;;;;;;;2.85;2.30;;;;;;;;;;5022731;28;20037;-67
2023/10/21 13:10:45;;;;;;;1.98;1.88;;;;;;;;;;5015132;28;20787;-67
2023/10/21 13:13:12;;;;;;;4.85;1.95;;;;;;;;;;5014691;28;20485;-67
2023/10/21 13:15:38;;;;;;;2.13;1.85;;;;;;;;;;5021265;28;20155;-67
2023/10/21 13:18:04;;;;;;;2.92;1.80;;;;;;;;;;5018410;28;20512;-67
2023/10/21 13:20:31;;;;;;;1.70;1.60;;;;;;;;;;5023907;28;20595;-68
2023/10/21 13:22:57;;;;;;;2.42;1.80;;;;;;;;;;5020609;28;20060;-68
2023/10/21 13:25:23;;;;;;;2.22;1.95;;;;;;;;;;5015692;28;20021;-67
2023/10/21 13:27:49;;;;;;;5.85;3.10;;;;;;;;;;5034445;28;20473;-67
2023/10/21 13:30:15;;;;;;;3.60;2.08;;;;;;;;;;5016391;28;20029;-67
2023/10/21 13:32:45;;;;;;;2.17;1.98;;;;;;;;;;5016912;28;20381;-67
2023/10/21 13:35:12;;;;;;;2.38;1.80;;;;;;;;;;5016618;28;20029;-67
2023/10/21 13:37:42;;;;;;;2.08;1.60;;;;;;;;;;5012224;28;20040;-67
2023/10/21 13:40:15;;;;;;;5.60;1.92;;;;;;;;;;5018153;28;20021;-67
2023/10/21 13:42:45;;;;;;;2.70;2.35;;;;;;;;;;5019498;28;20059;-67
2023/10/21 13:45:20;;;;;;;2.40;1.70;;;;;;;;;;5009381;28;20029;-70
2023/10/21 13:47:54;;;;;;;1.98;1.77;;;;;;;;;;5011863;28;20115;-67
2023/10/21 13:50:24;;;;;;;1.80;1.70;;;;;;;;;;5017009;28;20022;-67
2023/10/21 13:52:51;;;;;;;2.00;1.80;;;;;;;;;;5024861;28;20033;-68
2023/10/21 13:55:18;;;;;;;3.22;1.50;;;;;;;;;;5020627;28;20061;-68
2023/10/21 13:57:47;;;;;;;3.67;1.92;;;;;;;;;;5023218;28;20029;-68
2023/10/21 14:03:08;;;;;;;;;;;;;;;;;;5008649;28;20057;-65
2023/10/21 14:05:34;;;;;;;4.22;2.53;;;;;;;;;;5011386;28;20285;-65
2023/10/21 14:08:00;;;;;;;2.08;1.90;;;;;;;;;;5018575;28;20041;-66
2023/10/21 14:10:27;;;;;;;4.93;2.60;;;;;;;;;;5014654;28;20031;-66
2023/10/21 14:12:54;;;;;;;8.20;2.20;;;;;;;;;;5017978;28;20426;-66
2023/10/21 14:15:21;;;;;;;3.05;2.33;;;;;;;;;;5011162;28;20085;-64
2023/10/21 14:17:47;;;;;;;3.70;2.35;;;;;;;;;;5019194;28;20441;-66
2023/10/21 14:20:14;;;;;;;2.15;1.95;;;;;;;;;;5016220;28;20041;-67
2023/10/21 14:22:40;;;;;;;3.05;2.10;;;;;;;;;;5018719;28;20043;-66
2023/10/21 14:25:07;;;;;;;3.00;2.55;;;;;;;;;;5019101;28;20496;-66
2023/10/21 14:27:35;;;;;;;2.05;1.80;;;;;;;;;;5011563;28;20044;-67
2023/10/21 14:30:03;;;;;;;2.50;1.98;;;;;;;;;;5033882;28;20609;-66
2023/10/21 14:32:29;;;;;;;2.10;1.80;;;;;;;;;;5018298;28;20128;-67
2023/10/21 14:34:55;;;;;;;2.10;1.65;;;;;;;;;;5018084;28;21286;-66
2023/10/21 14:37:22;;;;;;;1.90;1.50;;;;;;;;;;5018969;28;20192;-66
2023/10/21 14:39:48;;;;;;;1.50;1.40;;;;;;;;;;5013103;28;20104;-67
2023/10/21 14:42:16;;;;;;;1.60;1.50;;;;;;;;;;5017796;28;20389;-67
2023/10/21 14:44:43;;;;;;;3.47;1.70;;;;;;;;;;5019087;28;20030;-66
2023/10/21 14:47:09;;;;;;;2.25;1.83;;;;;;;;;;5015202;28;20149;-66
2023/10/21 14:49:35;;;;;;;3.88;2.55;;;;;;;;;;5011987;28;20033;-66
2023/10/21 14:52:01;;;;;;;2.40;2.13;;;;;;;;;;5016992;28;20039;-66
2023/10/21 14:54:29;;;;;;;2.33;2.10;;;;;;;;;;5020582;28;20057;-67
2023/10/21 14:56:56;;;;;;;6.15;2.53;;;;;;;;;;5017392;28;20504;-66
2023/10/21 14:59:22;;;;;;;2.42;2.17;;;;;;;;;;5020943;28;20489;-66
2023/10/21 15:01:48;;;;;;;4.03;2.58;;;;;;;;;;5014625;28;20025;-67
2023/10/21 15:04:14;;;;;;;3.15;2.15;;;;;;;;;;5018296;28;20397;-67
2023/10/21 15:06:41;;;;;;;3.70;2.45;;;;;;;;;;5018254;28;20477;-67
2023/10/21 15:09:09;;;;;;;3.78;2.70;;;;;;;;;;5017255;28;20790;-67
2023/10/21 15:11:35;;;;;;;2.38;2.00;;;;;;;;;;5019213;28;20036;-67
2023/10/21 15:14:01;;;;;;;3.17;2.45;;;;;;;;;;5019241;28;20025;-68
2023/10/21 15:16:28;;;;;;;4.10;2.13;;;;;;;;;;5013569;28;20040;-66
2023/10/21 15:18:54;;;;;;;3.28;2.67;;;;;;;;;;5016744;28;20036;-66
2023/10/21 15:21:20;;;;;;;4.55;2.35;;;;;;;;;;5015467;28;20154;-67
2023/10/21 15:23:46;;;;;;;3.53;2.15;;;;;;;;;;5016671;28;20878;-66